Terminal Aerodrome Forecast
Issued by NWS Medford, OR

Home | Current Version | Previous Version | Text Only | Print | Product List | Glossary On
Versions: 1 2 3 4 5 6 7 8 9 10 11 12 13 14 15 16 17 18 19 20 21 22 23
951
FTUS46 KMFR 201754
TAFMFR
TAF
KMFR 201754Z 2018/2118 28009KT P6SM FEW040 BKN070
     FM202000 28009KT P6SM VCSH SCT035 OVC050
     FM211400 29006KT 3SM -RA BR OVC020=

USA.gov is the U.S. government's official web portal to all federal, state and local government web resources and services.